createdAt,value
2019-05-01T00:01:17.049Z,4.70
2019-05-01T00:03:47.134Z,4.42
2019-05-01T00:06:17.207Z,4.28
2019-05-01T00:08:46.206Z,4.65
2019-05-01T00:11:15.412Z,5.22
2019-05-01T00:13:45.898Z,4.65
2019-05-01T00:16:14.422Z,4.67
2019-05-01T00:18:43.116Z,4.85
2019-05-01T00:21:11.861Z,4.70
2019-05-01T00:23:40.300Z,4.75
2019-05-01T00:26:08.894Z,4.40
2019-05-01T00:28:37.442Z,4.87
2019-05-01T00:31:05.937Z,4.87
2019-05-01T00:33:34.826Z,5.05
2019-05-01T00:36:03.267Z,4.75
2019-05-01T00:38:31.776Z,4.55
2019-05-01T00:41:00.553Z,5.15
2019-05-01T00:43:28.995Z,5.30
2019-05-01T00:45:57.423Z,4.90
2019-05-01T00:48:26.145Z,4.67
2019-05-01T00:50:54.809Z,5.15
2019-05-01T00:53:23.243Z,5.20
2019-05-01T00:55:55.780Z,5.37
2019-05-01T00:58:41.680Z,5.50
2019-05-01T01:01:21.507Z,4.92
2019-05-01T01:03:50.010Z,4.90
2019-05-01T01:06:18.453Z,4.97
2019-05-01T01:08:47.007Z,5.15
2019-05-01T01:11:15.449Z,5.30
2019-05-01T01:13:43.875Z,4.67
2019-05-01T01:16:12.760Z,5.08
2019-05-01T01:18:41.199Z,4.75
2019-05-01T01:21:09.708Z,5.60
2019-05-01T01:23:39.179Z,5.40
2019-05-01T01:26:07.786Z,5.85
2019-05-01T01:28:36.217Z,5.25
2019-05-01T01:31:05.699Z,5.42
2019-05-01T01:33:34.128Z,5.42
2019-05-01T01:36:02.567Z,5.20
2019-05-01T01:38:31.276Z,5.28
2019-05-01T01:41:00.345Z,5.92
2019-05-01T01:43:48.838Z,4.60
2019-05-01T01:46:24.874Z,5.08
2019-05-01T01:48:53.860Z,5.70
2019-05-01T01:51:22.932Z,5.78
2019-05-01T01:53:53.318Z,5.50
2019-05-01T01:56:22.740Z,6.00
2019-05-01T01:58:52.305Z,5.97
2019-05-01T02:01:37.517Z,5.55
2019-05-01T02:04:07.657Z,5.65
2019-05-01T02:06:36.157Z,5.50
2019-05-01T02:09:07.228Z,5.28
2019-05-01T02:11:36.616Z,5.78
2019-05-01T02:14:05.114Z,5.25
2019-05-01T02:16:33.655Z,5.70
2019-05-01T02:19:02.088Z,5.83
2019-05-01T02:21:30.619Z,6.20
2019-05-01T02:23:59.322Z,5.50
2019-05-01T02:26:30.065Z,5.70
2019-05-01T02:29:13.667Z,5.73
2019-05-01T02:31:44.240Z,4.85
2019-05-01T02:34:13.711Z,5.65
2019-05-01T02:36:44.790Z,5.35
2019-05-01T02:39:14.375Z,5.65
2019-05-01T02:41:45.905Z,5.78
2019-05-01T02:44:17.900Z,5.65
2019-05-01T02:46:48.577Z,5.25
2019-05-01T02:49:28.795Z,5.92
2019-05-01T02:51:57.860Z,5.90
2019-05-01T02:54:27.734Z,5.50
2019-05-01T02:57:10.466Z,5.72
2019-05-01T02:59:44.385Z,5.67
2019-05-01T03:02:12.821Z,5.58
2019-05-01T03:04:42.111Z,6.17
2019-05-01T03:07:10.615Z,6.03
2019-05-01T03:09:42.853Z,6.03
2019-05-01T03:12:13.623Z,5.72
2019-05-01T03:14:45.108Z,5.57
2019-05-01T03:17:33.146Z,5.53
2019-05-01T03:20:06.930Z,6.25
2019-05-01T03:22:43.836Z,5.78
2019-05-01T03:25:13.011Z,5.85
2019-05-01T03:27:43.054Z,6.33
2019-05-01T03:30:13.302Z,5.58
2019-05-01T03:32:41.803Z,6.00
2019-05-01T03:35:10.373Z,6.25
2019-05-01T03:37:39.388Z,5.95
2019-05-01T03:40:11.971Z,6.10
2019-05-01T03:42:38.472Z,5.97
2019-05-01T03:45:07.468Z,6.67
2019-05-01T03:47:35.899Z,5.97
2019-05-01T03:50:06.076Z,5.95
2019-05-01T03:52:35.593Z,6.22
2019-05-01T03:55:04.674Z,6.30
2019-05-01T03:57:33.399Z,6.35
2019-05-01T04:00:05.556Z,5.65
2019-05-01T04:02:35.664Z,6.47
2019-05-01T04:05:05.607Z,6.80
2019-05-01T04:07:36.403Z,6.47
2019-05-01T04:10:07.431Z,6.58
2019-05-01T04:12:37.381Z,6.60
2019-05-01T04:15:07.145Z,6.22
2019-05-01T04:17:44.025Z,6.40
2019-05-01T04:20:12.903Z,6.30
2019-05-01T04:22:41.344Z,6.70
2019-05-01T04:25:10.121Z,6.70
2019-05-01T04:27:41.398Z,6.33
2019-05-01T04:30:14.519Z,6.85
2019-05-01T04:32:52.775Z,6.25
2019-05-01T04:35:16.048Z,6.75
2019-05-01T04:37:45.453Z,7.08
2019-05-01T04:40:14.227Z,6.95
2019-05-01T04:42:42.760Z,6.97
2019-05-01T04:45:11.864Z,6.60
2019-05-01T04:47:40.306Z,6.78
2019-05-01T04:50:10.739Z,7.35
2019-05-01T04:52:39.598Z,6.50
2019-05-01T04:55:08.368Z,6.80
2019-05-01T04:57:37.133Z,7.12
2019-05-01T05:00:08.776Z,6.95
2019-05-01T05:05:12.848Z,6.92
2019-05-01T05:07:42.068Z,6.97
2019-05-01T05:10:11.001Z,7.25
2019-05-01T05:12:45.017Z,7.50
2019-05-01T05:15:30.558Z,6.83
2019-05-01T05:17:59.160Z,7.40
2019-05-01T05:20:28.688Z,6.87
2019-05-01T05:22:57.611Z,7.37
2019-05-01T05:25:26.213Z,7.08
2019-05-01T05:27:57.007Z,6.45
2019-05-01T05:30:27.763Z,7.30
2019-05-01T05:32:57.650Z,7.05
2019-05-01T05:35:27.901Z,7.10
2019-05-01T05:38:01.142Z,7.12
2019-05-01T05:40:33.107Z,6.62
2019-05-01T05:43:02.820Z,7.00
2019-05-01T05:45:31.337Z,6.92
2019-05-01T05:47:59.849Z,7.58
2019-05-01T05:50:33.266Z,6.60
2019-05-01T05:53:08.177Z,6.97
2019-05-01T05:55:43.569Z,7.10
2019-05-01T05:58:31.942Z,6.50
2019-05-01T06:01:06.711Z,7.03
2019-05-01T06:03:47.630Z,6.67
2019-05-01T06:06:23.448Z,6.70
2019-05-01T06:08:54.946Z,6.20
2019-05-01T06:11:29.722Z,6.55
2019-05-01T06:14:11.765Z,6.37
2019-05-01T06:16:54.271Z,6.43
2019-05-01T06:19:34.055Z,6.70
2019-05-01T06:22:10.227Z,7.00
2019-05-01T06:24:43.184Z,6.35
2019-05-01T06:27:13.853Z,7.17
2019-05-01T06:29:43.832Z,6.72
2019-05-01T06:32:12.498Z,7.08
2019-05-01T06:34:41.591Z,6.78
2019-05-01T06:37:10.103Z,7.17
2019-05-01T06:39:42.875Z,7.03
2019-05-01T06:42:15.244Z,6.78
2019-05-01T06:44:46.965Z,6.90
2019-05-01T06:47:17.187Z,6.53
2019-05-01T06:49:55.799Z,6.58
2019-05-01T06:52:29.335Z,6.35
2019-05-01T06:54:58.167Z,6.53
2019-05-01T06:57:28.520Z,6.20
2019-05-01T07:00:03.271Z,7.10
2019-05-01T07:02:34.983Z,6.90
2019-05-01T07:07:31.405Z,6.47
2019-05-01T07:10:01.987Z,6.05
2019-05-01T07:12:32.463Z,6.30
2019-05-01T07:15:02.345Z,6.20
2019-05-01T07:17:31.027Z,5.92
2019-05-01T07:20:11.894Z,5.90
2019-05-01T07:22:42.367Z,5.85
2019-05-01T07:25:10.099Z,5.92
2019-05-01T07:27:38.534Z,5.50
2019-05-01T07:30:19.658Z,5.85
2019-05-01T07:32:46.916Z,5.62
2019-05-01T07:35:15.433Z,5.92
2019-05-01T07:37:44.331Z,5.00
2019-05-01T07:40:13.148Z,6.62
2019-05-01T07:42:58.900Z,6.08
2019-05-01T07:45:34.622Z,5.92
2019-05-01T07:48:05.567Z,6.33
2019-05-01T07:50:36.137Z,5.73
2019-05-01T07:53:04.748Z,5.65
2019-05-01T07:55:37.089Z,5.92
2019-05-01T07:58:10.192Z,6.22
2019-05-01T08:00:54.051Z,5.45
2019-05-01T08:03:22.498Z,5.80
2019-05-01T08:05:50.993Z,5.85
2019-05-01T08:08:19.533Z,4.87
2019-05-01T08:10:48.096Z,5.53
2019-05-01T08:13:16.539Z,5.45
2019-05-01T08:15:45.434Z,5.08
2019-05-01T08:18:30.332Z,5.65
2019-05-01T08:21:21.197Z,5.05
2019-05-01T08:23:48.331Z,5.60
2019-05-01T08:26:17.159Z,5.58
2019-05-01T08:29:06.916Z,5.42
2019-05-01T08:31:37.597Z,5.28
2019-05-01T08:34:07.806Z,5.17
2019-05-01T08:36:36.263Z,5.90
2019-05-01T08:39:09.177Z,6.00
2019-05-01T08:41:37.733Z,5.75
2019-05-01T08:44:07.423Z,6.00
2019-05-01T08:46:52.731Z,5.80
2019-05-01T08:49:31.953Z,5.67
2019-05-01T08:52:00.405Z,5.22
2019-05-01T08:54:33.335Z,5.75
2019-05-01T08:56:59.971Z,5.25
2019-05-01T08:59:28.659Z,5.17
2019-05-01T09:02:09.169Z,5.47
2019-05-01T09:04:30.450Z,5.70
2019-05-01T09:06:57.522Z,5.20
2019-05-01T09:09:26.029Z,5.25
2019-05-01T09:11:56.610Z,4.90
2019-05-01T09:14:29.868Z,5.37
2019-05-01T09:16:55.890Z,4.80
2019-05-01T09:19:24.529Z,5.05
2019-05-01T09:21:53.118Z,4.87
2019-05-01T09:24:23.106Z,5.05
2019-05-01T09:26:56.527Z,4.80
2019-05-01T09:29:26.598Z,4.67
2019-05-01T09:31:55.188Z,5.10
2019-05-01T09:34:23.765Z,5.08
2019-05-01T09:36:52.228Z,5.10
2019-05-01T09:39:21.207Z,5.00
2019-05-01T09:41:50.009Z,5.20
2019-05-01T09:44:18.440Z,5.40
2019-05-01T09:46:46.874Z,5.08
2019-05-01T09:49:18.202Z,4.87
2019-05-01T09:52:03.522Z,4.92
2019-05-01T09:54:42.894Z,4.95
2019-05-01T09:57:12.727Z,4.85
2019-05-01T09:59:41.156Z,4.80
2019-05-01T10:02:09.694Z,4.70
2019-05-01T10:04:38.141Z,4.47
2019-05-01T10:07:08.371Z,4.75
2019-05-01T10:09:36.901Z,4.37
2019-05-01T10:12:05.413Z,4.83
2019-05-01T10:14:36.307Z,4.90
2019-05-01T10:17:04.169Z,4.80
2019-05-01T10:19:32.598Z,4.78
2019-05-01T10:22:02.364Z,5.08
2019-05-01T10:24:31.888Z,4.53
2019-05-01T10:27:03.163Z,4.80
2019-05-01T10:29:45.948Z,4.45
2019-05-01T10:32:21.684Z,5.00
2019-05-01T10:34:56.871Z,4.40
2019-05-01T10:37:28.370Z,4.42
2019-05-01T10:39:58.233Z,4.30
2019-05-01T10:42:26.792Z,4.40
2019-05-01T10:44:55.239Z,4.45
2019-05-01T10:47:23.684Z,4.53
2019-05-01T10:49:52.221Z,5.40
2019-05-01T10:52:20.661Z,5.28
2019-05-01T10:54:49.097Z,5.30
2019-05-01T10:57:17.624Z,4.97
2019-05-01T10:59:47.269Z,4.30
2019-05-01T11:02:17.358Z,4.50
2019-05-01T11:04:45.888Z,4.45
2019-05-01T11:07:14.320Z,4.35
2019-05-01T11:09:42.913Z,4.37
2019-05-01T11:12:11.473Z,4.78
2019-05-01T11:14:39.910Z,4.50
2019-05-01T11:17:08.380Z,4.90
2019-05-01T11:19:37.610Z,4.92
2019-05-01T11:22:06.194Z,4.80
2019-05-01T11:24:34.686Z,4.72
2019-05-01T11:27:03.310Z,4.37
2019-05-01T11:29:31.939Z,4.72
2019-05-01T11:32:02.014Z,4.97
2019-05-01T11:34:41.620Z,4.35
2019-05-01T11:37:20.509Z,4.37
2019-05-01T11:40:06.556Z,4.05
2019-05-01T11:42:34.995Z,4.35
2019-05-01T11:45:05.042Z,4.20
2019-05-01T11:47:33.720Z,4.30
2019-05-01T11:50:02.382Z,4.25
2019-05-01T11:52:30.831Z,4.15
2019-05-01T11:54:59.362Z,3.95
2019-05-01T11:57:27.882Z,4.12
2019-05-01T11:59:56.393Z,4.12
2019-05-01T12:02:24.933Z,3.92
2019-05-01T12:04:53.386Z,4.17
2019-05-01T12:07:21.905Z,3.55
2019-05-01T12:09:50.745Z,3.70
2019-05-01T12:12:28.111Z,4.05
2019-05-01T12:14:56.635Z,3.60
2019-05-01T12:17:26.732Z,3.80
2019-05-01T12:19:55.186Z,3.55
2019-05-01T12:22:23.851Z,3.55
2019-05-01T12:24:52.287Z,3.80
2019-05-01T12:27:20.743Z,3.33
2019-05-01T12:29:49.419Z,3.70
2019-05-01T12:32:17.858Z,3.92
2019-05-01T12:34:46.359Z,3.55
2019-05-01T12:37:16.443Z,3.50
2019-05-01T12:39:46.313Z,3.35
2019-05-01T12:42:16.398Z,3.60
2019-05-01T12:44:45.015Z,3.37
2019-05-01T12:47:31.286Z,3.42
2019-05-01T12:50:00.972Z,3.55
2019-05-01T12:52:39.858Z,3.90
2019-05-01T12:55:16.375Z,3.60
2019-05-01T12:57:44.812Z,3.75
2019-05-01T13:00:15.973Z,3.77
2019-05-01T13:02:44.725Z,3.10
2019-05-01T13:05:13.240Z,3.20
2019-05-01T13:07:41.811Z,3.42
2019-05-01T13:10:13.810Z,3.40
2019-05-01T13:12:43.504Z,3.08
2019-05-01T13:15:12.569Z,3.55
2019-05-01T13:17:41.020Z,3.35
2019-05-01T13:20:12.833Z,3.20
2019-05-01T13:22:41.271Z,3.72
2019-05-01T13:25:09.877Z,3.20
2019-05-01T13:27:48.843Z,3.65
2019-05-01T13:30:28.100Z,3.40
2019-05-01T13:32:57.422Z,3.42
2019-05-01T13:35:25.862Z,3.37
2019-05-01T13:37:54.303Z,3.05
2019-05-01T13:40:23.190Z,3.00
2019-05-01T13:42:51.629Z,3.30
2019-05-01T13:45:20.408Z,3.00
2019-05-01T13:47:48.863Z,3.05
2019-05-01T13:50:19.695Z,3.42
2019-05-01T13:52:48.338Z,3.60
2019-05-01T13:55:17.350Z,3.25
2019-05-01T13:57:45.873Z,3.10
2019-05-01T14:00:17.870Z,3.02
2019-05-01T14:02:46.721Z,3.00
2019-05-01T14:05:15.227Z,3.30
2019-05-01T14:07:43.658Z,2.98
2019-05-01T14:10:12.833Z,3.10
2019-05-01T14:12:41.275Z,2.67
2019-05-01T14:15:09.853Z,2.75
2019-05-01T14:17:38.586Z,3.20
2019-05-01T14:20:29.191Z,3.08
2019-05-01T14:23:15.397Z,2.90
2019-05-01T14:26:01.905Z,3.17
2019-05-01T14:28:30.436Z,3.02
2019-05-01T14:31:03.317Z,3.10
2019-05-01T14:33:31.819Z,2.85
2019-05-01T14:36:00.364Z,2.58
2019-05-01T14:38:28.804Z,3.12
2019-05-01T14:40:58.404Z,2.75
2019-05-01T14:43:27.070Z,3.00
2019-05-01T14:45:56.046Z,3.00
2019-05-01T14:48:24.725Z,2.95
2019-05-01T14:50:56.021Z,2.47
2019-05-01T14:53:24.462Z,2.60
2019-05-01T14:55:52.905Z,2.70
2019-05-01T14:58:21.412Z,2.77
2019-05-01T15:00:51.165Z,2.70
2019-05-01T15:03:19.605Z,2.52
2019-05-01T15:05:48.172Z,2.72
2019-05-01T15:08:16.614Z,2.77
2019-05-01T15:10:45.080Z,2.30
2019-05-01T15:13:15.426Z,2.30
2019-05-01T15:15:45.513Z,1.95
2019-05-01T15:18:27.956Z,2.22
2019-05-01T15:20:56.641Z,2.30
2019-05-01T15:23:25.068Z,2.15
2019-05-01T15:25:53.757Z,2.30
2019-05-01T15:28:22.261Z,2.30
2019-05-01T15:30:53.019Z,2.20
2019-05-01T15:33:21.468Z,1.90
2019-05-01T15:35:49.918Z,2.10
2019-05-01T15:38:18.433Z,2.20
2019-05-01T15:41:00.309Z,2.00
2019-05-01T15:43:30.404Z,2.00
2019-05-01T15:45:58.906Z,1.90
2019-05-01T15:48:27.759Z,2.17
2019-05-01T15:50:56.431Z,1.90
2019-05-01T15:53:24.874Z,2.05
2019-05-01T15:55:53.380Z,2.10
2019-05-01T15:58:21.823Z,1.90
2019-05-01T16:00:50.438Z,2.08
2019-05-01T16:03:18.983Z,2.00
2019-05-01T16:05:47.416Z,1.80
2019-05-01T16:08:15.867Z,1.77
2019-05-01T16:11:01.548Z,1.80
2019-05-01T16:13:30.047Z,1.92
2019-05-01T16:15:58.554Z,1.70
2019-05-01T16:18:28.594Z,1.90
2019-05-01T16:21:45.763Z,2.12
2019-05-01T16:24:14.500Z,2.02
2019-05-01T16:26:43.012Z,1.92
2019-05-01T16:29:11.452Z,1.70
2019-05-01T16:31:41.007Z,2.00
2019-05-01T16:34:09.465Z,1.70
2019-05-01T16:36:37.974Z,1.60
2019-05-01T16:39:13.076Z,1.85
2019-05-01T16:41:43.229Z,2.00
2019-05-01T16:44:11.671Z,1.90
2019-05-01T16:46:40.218Z,1.67
2019-05-01T16:49:08.663Z,1.90
2019-05-01T16:51:39.059Z,1.95
2019-05-01T16:54:08.945Z,1.87
2019-05-01T16:56:37.412Z,2.20
2019-05-01T16:59:08.003Z,2.02
2019-05-01T17:01:51.774Z,1.80
2019-05-01T17:04:21.839Z,2.02
2019-05-01T17:07:08.677Z,1.92
2019-05-01T17:09:55.042Z,1.82
2019-05-01T17:12:25.259Z,1.85
2019-05-01T17:14:56.764Z,1.72
2019-05-01T17:20:46.058Z,2.05
2019-05-01T17:23:20.508Z,2.00
2019-05-01T17:25:48.944Z,1.70
2019-05-01T17:28:17.378Z,1.95
2019-05-01T17:30:49.086Z,1.70
2019-05-01T17:33:20.636Z,1.60
2019-05-01T17:35:47.773Z,1.70
2019-05-01T17:38:16.298Z,1.65
2019-05-01T17:40:51.952Z,1.87
2019-05-01T17:43:18.831Z,1.60
2019-05-01T17:45:47.411Z,1.60
2019-05-01T17:48:16.015Z,1.75
2019-05-01T17:50:44.609Z,1.80
2019-05-01T17:53:13.161Z,1.57
2019-05-01T17:55:41.590Z,1.75
2019-05-01T17:58:10.045Z,1.60
2019-05-01T18:00:40.254Z,1.40
2019-05-01T18:03:22.107Z,1.60
2019-05-01T18:06:08.758Z,1.60
2019-05-01T18:08:37.207Z,1.57
2019-05-01T18:11:09.462Z,1.42
2019-05-01T18:13:36.381Z,1.52
2019-05-01T18:16:04.984Z,1.47
2019-05-01T18:18:33.423Z,1.85
2019-05-01T18:21:10.796Z,1.62
2019-05-01T18:23:57.357Z,1.72
2019-05-01T18:26:27.531Z,1.75
2019-05-01T18:29:00.815Z,2.02
2019-05-01T18:31:31.907Z,1.90
2019-05-01T18:34:02.400Z,1.70
2019-05-01T18:36:38.358Z,1.55
2019-05-01T18:39:16.537Z,1.70
2019-05-01T18:41:54.178Z,1.50
2019-05-01T18:44:23.070Z,1.60
2019-05-01T18:46:51.654Z,1.50
2019-05-01T18:49:20.125Z,1.80
2019-05-01T18:51:48.782Z,1.55
2019-05-01T18:54:17.217Z,1.60
2019-05-01T18:56:45.672Z,1.60
2019-05-01T18:59:15.636Z,1.57
2019-05-01T19:01:48.400Z,1.57
2019-05-01T19:04:18.486Z,1.50
2019-05-01T19:06:45.125Z,1.70
2019-05-01T19:09:15.422Z,1.60
2019-05-01T19:11:44.990Z,1.47
2019-05-01T19:14:13.587Z,1.40
2019-05-01T19:16:45.343Z,1.67
2019-05-01T19:19:12.260Z,1.70
2019-05-01T19:21:46.381Z,1.72
2019-05-01T19:24:12.799Z,1.45
2019-05-01T19:26:42.702Z,1.70
2019-05-01T19:29:11.774Z,1.40
2019-05-01T19:31:41.436Z,1.70
2019-05-01T19:34:09.934Z,1.72
2019-05-01T19:36:40.269Z,1.50
2019-05-01T19:39:11.625Z,1.40
2019-05-01T19:41:43.723Z,1.50
2019-05-01T19:44:13.844Z,1.50
2019-05-01T19:46:40.593Z,1.60
2019-05-01T19:49:09.145Z,1.40
2019-05-01T19:51:38.962Z,1.70
2019-05-01T19:54:07.594Z,1.40
2019-05-01T19:56:36.072Z,1.45
2019-05-01T19:59:08.147Z,1.60
2019-05-01T20:01:38.426Z,1.50
2019-05-01T20:04:08.448Z,1.40
2019-05-01T20:06:39.978Z,1.72
2019-05-01T20:09:09.626Z,1.67
2019-05-01T20:11:40.104Z,1.40
2019-05-01T20:14:08.829Z,1.40
2019-05-01T20:16:37.262Z,1.27
2019-05-01T20:19:05.778Z,1.62
2019-05-01T20:21:34.449Z,1.30
2019-05-01T20:24:04.247Z,1.50
2019-05-01T20:26:34.084Z,1.32
2019-05-01T20:29:04.553Z,1.35
2019-05-01T20:31:33.348Z,1.30
2019-05-01T20:34:01.777Z,1.57
2019-05-01T20:36:30.445Z,1.40
2019-05-01T20:38:58.902Z,1.60
2019-05-01T20:41:28.601Z,1.42
2019-05-01T20:43:57.332Z,1.50
2019-05-01T20:46:27.824Z,1.40
2019-05-01T20:49:00.886Z,1.42
2019-05-01T20:51:26.189Z,1.70
2019-05-01T20:53:54.623Z,1.60
2019-05-01T20:56:30.962Z,1.60
2019-05-01T20:59:02.949Z,1.30
2019-05-01T21:01:31.299Z,1.70
2019-05-01T21:04:01.590Z,1.47
2019-05-01T21:06:34.360Z,1.25
2019-05-01T21:09:20.870Z,1.50
2019-05-01T21:12:04.180Z,1.42
2019-05-01T21:14:22.936Z,1.37
2019-05-01T21:16:51.505Z,1.47
2019-05-01T21:19:19.938Z,1.60
2019-05-01T21:21:48.402Z,1.77
2019-05-01T21:24:16.976Z,1.60
2019-05-01T21:26:45.417Z,1.80
2019-05-01T21:29:14.219Z,1.52
2019-05-01T21:31:45.277Z,1.50
2019-05-01T21:34:14.460Z,1.60
2019-05-01T21:36:47.688Z,1.30
2019-05-01T21:39:14.978Z,1.40
2019-05-01T21:41:43.613Z,1.40
2019-05-01T21:44:13.160Z,1.70
2019-05-01T21:46:43.174Z,1.55
2019-05-01T21:49:12.963Z,1.70
2019-05-01T21:51:45.858Z,1.77
2019-05-01T21:54:16.002Z,1.70
2019-05-01T21:56:42.958Z,1.70
2019-05-01T21:59:11.527Z,1.30
2019-05-01T22:01:41.101Z,1.50
2019-05-01T22:04:09.534Z,1.60
2019-05-01T22:06:38.148Z,1.30
2019-05-01T22:09:10.597Z,1.37
2019-05-01T22:11:39.386Z,1.40
2019-05-01T22:14:09.533Z,1.47
2019-05-01T22:16:38.241Z,1.35
2019-05-01T22:19:08.322Z,1.50
2019-05-01T22:21:47.863Z,1.70
2019-05-01T22:24:17.940Z,1.90
2019-05-01T22:26:48.011Z,1.60
2019-05-01T22:29:21.211Z,1.52
2019-05-01T22:31:52.862Z,1.40
2019-05-01T22:34:32.255Z,1.77
2019-05-01T22:37:00.691Z,1.57
2019-05-01T22:39:30.835Z,1.50
2019-05-01T22:41:59.322Z,1.47
2019-05-01T22:44:27.767Z,1.30
2019-05-01T22:46:56.195Z,1.50
2019-05-01T22:49:25.126Z,1.90
2019-05-01T22:51:53.555Z,1.70
2019-05-01T22:54:21.990Z,1.80
2019-05-01T22:56:50.445Z,1.90
2019-05-01T22:59:19.186Z,1.60
2019-05-01T23:01:53.071Z,1.50
2019-05-01T23:04:19.704Z,1.70
2019-05-01T23:06:48.206Z,1.40
2019-05-01T23:09:18.761Z,1.30
2019-05-01T23:11:47.913Z,1.35
2019-05-01T23:14:17.320Z,1.67
2019-05-01T23:16:48.062Z,1.50
2019-05-01T23:19:16.870Z,2.10
2019-05-01T23:21:45.909Z,2.22
2019-05-01T23:24:15.730Z,2.00
2019-05-01T23:26:48.052Z,2.05
2019-05-01T23:29:18.182Z,2.02
2019-05-01T23:31:46.868Z,1.80
2019-05-01T23:34:15.477Z,1.60
2019-05-01T23:36:43.987Z,1.35
2019-05-01T23:39:13.634Z,1.40
2019-05-01T23:41:46.794Z,1.67
2019-05-01T23:44:13.499Z,1.55
2019-05-01T23:46:41.938Z,1.67
2019-05-01T23:49:10.463Z,1.82
2019-05-01T23:51:38.895Z,1.80
2019-05-01T23:54:07.339Z,1.80
2019-05-01T23:56:36.375Z,2.00
2019-05-01T23:59:05.363Z,1.85
